createdAt,value
2023-05-06T00:01:50.646Z,6.73
2023-05-06T00:04:54.474Z,5.33
2023-05-06T00:07:58.171Z,6.30
2023-05-06T00:11:01.958Z,5.67
2023-05-06T00:14:07.452Z,6.53
2023-05-06T00:17:11.372Z,8.57
2023-05-06T00:20:15.758Z,5.70
2023-05-06T00:23:19.500Z,6.30
2023-05-06T00:26:23.195Z,6.97
2023-05-06T00:29:28.722Z,8.97
2023-05-06T00:32:32.556Z,7.00
2023-05-06T00:35:36.297Z,7.13
2023-05-06T00:38:40.923Z,7.87
2023-05-06T00:41:45.279Z,6.70
2023-05-06T00:44:50.817Z,8.63
2023-05-06T00:47:54.843Z,7.33
2023-05-06T00:50:58.687Z,11.13
2023-05-06T00:54:03.525Z,7.67
2023-05-06T00:57:07.281Z,10.07
2023-05-06T01:00:13.612Z,9.53
2023-05-06T01:03:17.595Z,9.73
2023-05-06T01:06:27.988Z,9.47
2023-05-06T01:09:42.427Z,8.13
2023-05-06T01:12:59.997Z,8.50
2023-05-06T01:16:08.738Z,9.17
2023-05-06T01:19:19.506Z,9.73
2023-05-06T01:22:26.238Z,8.07
2023-05-06T01:25:32.568Z,7.87
2023-05-06T01:28:36.252Z,12.23
2023-05-06T01:31:47.132Z,9.07
2023-05-06T01:35:01.409Z,9.57
2023-05-06T01:38:13.401Z,10.60
2023-05-06T01:41:19.501Z,10.57
2023-05-06T01:44:24.666Z,9.07
2023-05-06T01:47:28.526Z,10.17
2023-05-06T01:50:32.719Z,8.90
2023-05-06T01:53:37.692Z,9.10
2023-05-06T01:56:42.890Z,13.43
2023-05-06T01:59:46.531Z,8.37
2023-05-06T02:02:50.234Z,9.87
2023-05-06T02:05:54.308Z,10.00
2023-05-06T02:08:58.224Z,13.07
2023-05-06T02:12:04.658Z,10.27
2023-05-06T02:15:09.810Z,11.10
2023-05-06T02:18:14.126Z,10.60
2023-05-06T02:21:17.714Z,13.03
2023-05-06T02:24:21.459Z,10.57
2023-05-06T02:27:26.526Z,10.43
2023-05-06T02:30:32.582Z,12.33
2023-05-06T02:33:36.309Z,14.00
2023-05-06T02:36:40.674Z,10.50
2023-05-06T02:39:44.417Z,12.33
2023-05-06T02:42:49.534Z,11.03
2023-05-06T02:45:53.271Z,10.33
2023-05-06T02:48:56.982Z,11.87
2023-05-06T02:52:00.964Z,11.77
2023-05-06T02:55:05.037Z,15.10
2023-05-06T02:58:10.183Z,12.13
2023-05-06T03:01:13.945Z,11.07
2023-05-06T03:04:17.659Z,10.50
2023-05-06T03:07:21.844Z,11.93
2023-05-06T03:10:25.790Z,14.00
2023-05-06T03:13:32.530Z,12.17
2023-05-06T03:16:36.340Z,13.17
2023-05-06T03:19:40.564Z,11.70
2023-05-06T03:22:45.978Z,9.90
2023-05-06T03:25:49.783Z,11.23
2023-05-06T03:28:56.987Z,13.30
2023-05-06T03:32:04.871Z,12.03
2023-05-06T03:35:14.642Z,11.37
2023-05-06T03:38:21.740Z,12.87
2023-05-06T03:41:32.543Z,11.70
2023-05-06T03:44:38.611Z,12.30
2023-05-06T03:47:43.071Z,12.30
2023-05-06T03:50:48.390Z,10.90
2023-05-06T03:53:54.938Z,9.83
2023-05-06T03:56:59.268Z,11.67
2023-05-06T04:00:04.764Z,10.00
2023-05-06T04:03:09.056Z,10.20
2023-05-06T04:06:19.259Z,10.87
2023-05-06T04:09:22.961Z,10.73
2023-05-06T04:12:27.933Z,11.07
2023-05-06T04:15:34.735Z,11.90
2023-05-06T04:18:41.204Z,10.07
2023-05-06T04:21:50.705Z,10.87
2023-05-06T04:24:55.707Z,11.00
2023-05-06T04:27:59.536Z,12.37
2023-05-06T04:31:05.212Z,11.00
2023-05-06T04:34:16.853Z,9.20
2023-05-06T04:37:21.907Z,9.00
2023-05-06T04:40:30.999Z,8.27
2023-05-06T04:43:34.936Z,9.03
2023-05-06T04:46:49.681Z,7.17
2023-05-06T04:49:53.543Z,9.13
2023-05-06T04:52:58.466Z,7.87
2023-05-06T04:56:02.669Z,10.30
2023-05-06T04:59:08.384Z,6.73
2023-05-06T05:02:13.872Z,7.83
2023-05-06T05:05:19.922Z,7.93
2023-05-06T05:08:27.860Z,8.20
2023-05-06T05:11:32.845Z,9.37
2023-05-06T05:14:36.709Z,6.87
2023-05-06T05:17:42.665Z,7.77
2023-05-06T05:20:46.952Z,8.67
2023-05-06T05:23:51.593Z,9.77
2023-05-06T05:26:55.903Z,7.57
2023-05-06T05:30:00.323Z,10.13
2023-05-06T05:33:05.799Z,8.63
2023-05-06T05:36:12.715Z,6.83
2023-05-06T05:39:16.598Z,10.63
2023-05-06T05:42:23.232Z,9.63
2023-05-06T05:45:27.558Z,7.33
2023-05-06T05:48:34.422Z,8.57
2023-05-06T05:51:40.369Z,6.90
2023-05-06T05:54:45.865Z,5.35
2023-05-06T05:57:49.875Z,7.80
2023-05-06T06:00:55.209Z,6.80
2023-05-06T06:04:00.906Z,9.73
2023-05-06T06:07:05.097Z,9.70
2023-05-06T06:10:15.575Z,6.55
2023-05-06T06:13:21.050Z,10.32
2023-05-06T06:16:25.214Z,8.65
2023-05-06T06:19:30.477Z,9.98
2023-05-06T06:22:34.673Z,10.15
2023-05-06T06:25:38.795Z,9.57
2023-05-06T06:28:44.904Z,6.65
2023-05-06T06:31:49.424Z,6.60
2023-05-06T06:34:54.828Z,8.65
2023-05-06T06:37:58.808Z,7.07
2023-05-06T06:41:02.523Z,6.60
2023-05-06T06:44:07.064Z,7.50
2023-05-06T06:47:11.008Z,7.97
2023-05-06T06:50:16.565Z,9.00
2023-05-06T06:53:20.351Z,8.45
2023-05-06T06:56:24.270Z,8.10
2023-05-06T06:59:28.084Z,9.32
2023-05-06T07:02:31.868Z,7.28
2023-05-06T07:05:37.100Z,7.32
2023-05-06T07:08:40.921Z,7.28
2023-05-06T07:11:44.799Z,7.95
2023-05-06T07:14:48.578Z,9.38
2023-05-06T07:17:52.451Z,6.93
2023-05-06T07:20:57.846Z,7.97
2023-05-06T07:24:01.638Z,6.20
2023-05-06T07:27:05.734Z,5.45
2023-05-06T07:30:10.604Z,5.82
2023-05-06T07:33:14.456Z,4.68
2023-05-06T07:36:19.754Z,5.75
2023-05-06T07:39:23.538Z,7.57
2023-05-06T07:42:27.787Z,5.40
2023-05-06T07:45:31.694Z,6.22
2023-05-06T07:48:35.450Z,8.48
2023-05-06T07:51:40.919Z,5.38
2023-05-06T07:54:44.855Z,6.45
2023-05-06T07:57:48.668Z,7.20
2023-05-06T08:00:52.343Z,5.30
2023-05-06T08:03:56.520Z,5.57
2023-05-06T08:07:01.880Z,5.80
2023-05-06T08:10:06.664Z,7.65
2023-05-06T08:13:11.457Z,5.45
2023-05-06T08:16:15.403Z,5.35
2023-05-06T08:19:19.493Z,6.35
2023-05-06T08:22:24.833Z,4.95
2023-05-06T08:25:28.794Z,5.18
2023-05-06T08:28:32.932Z,8.40
2023-05-06T08:31:36.845Z,10.48
2023-05-06T08:34:40.711Z,5.72
2023-05-06T08:37:46.291Z,6.28
2023-05-06T08:40:50.825Z,9.13
2023-05-06T08:43:56.518Z,7.32
2023-05-06T08:47:00.721Z,7.22
2023-05-06T08:50:04.640Z,4.50
2023-05-06T08:53:12.137Z,6.95
2023-05-06T08:56:17.302Z,6.10
2023-05-06T08:59:24.102Z,6.88
2023-05-06T09:02:28.199Z,3.40
2023-05-06T09:05:32.082Z,4.20
2023-05-06T09:08:37.732Z,4.65
2023-05-06T09:11:42.012Z,5.43
2023-05-06T09:14:46.858Z,7.15
2023-05-06T09:17:50.708Z,4.65
2023-05-06T09:20:54.507Z,7.22
2023-05-06T09:23:59.942Z,4.75
2023-05-06T09:27:03.710Z,5.18
2023-05-06T09:30:09.773Z,5.35
2023-05-06T09:33:14.036Z,6.20
2023-05-06T09:36:18.093Z,6.65
2023-05-06T09:39:27.393Z,6.43
2023-05-06T09:42:32.138Z,6.70
2023-05-06T09:45:37.899Z,6.47
2023-05-06T09:48:42.779Z,3.55
2023-05-06T09:51:48.184Z,4.80
2023-05-06T09:54:55.157Z,6.68
2023-05-06T09:58:00.155Z,4.40
2023-05-06T10:01:05.386Z,5.47
2023-05-06T10:04:12.969Z,5.30
2023-05-06T10:07:22.976Z,4.78
2023-05-06T10:10:29.954Z,6.28
2023-05-06T10:13:34.402Z,6.82
2023-05-06T10:16:40.389Z,6.43
2023-05-06T10:19:52.069Z,4.85
2023-05-06T10:23:05.165Z,5.00
2023-05-06T10:26:13.857Z,4.00
2023-05-06T10:29:19.052Z,4.53
2023-05-06T10:32:23.282Z,6.22
2023-05-06T10:35:37.613Z,6.63
2023-05-06T10:38:45.061Z,10.10
2023-05-06T10:41:50.607Z,3.92
2023-05-06T10:45:05.076Z,5.55
2023-05-06T10:48:13.350Z,7.57
2023-05-06T10:51:25.433Z,8.60
2023-05-06T10:54:29.482Z,6.18
2023-05-06T10:57:42.490Z,5.50
2023-05-06T11:00:55.912Z,7.38
2023-05-06T11:04:00.968Z,7.00
2023-05-06T11:07:09.385Z,4.30
2023-05-06T11:10:13.314Z,7.60
2023-05-06T11:13:26.582Z,3.55
2023-05-06T11:16:48.919Z,6.47
2023-05-06T11:20:22.475Z,6.18
2023-05-06T11:24:06.038Z,10.25
2023-05-06T11:27:10.744Z,3.95
2023-05-06T11:30:17.610Z,3.58
2023-05-06T11:33:24.185Z,6.30
2023-05-06T11:36:28.990Z,9.63
2023-05-06T11:39:39.661Z,3.95
2023-05-06T11:42:44.557Z,6.95
2023-05-06T11:45:50.859Z,4.50
2023-05-06T11:48:54.664Z,7.55
2023-05-06T11:51:58.518Z,8.93
2023-05-06T11:55:02.247Z,6.72
2023-05-06T11:58:06.101Z,4.97
2023-05-06T12:01:11.735Z,6.30
2023-05-06T12:04:15.632Z,7.40
2023-05-06T12:07:19.600Z,6.35
2023-05-06T12:10:23.468Z,5.78
2023-05-06T12:13:28.174Z,8.98
2023-05-06T12:16:33.732Z,3.97
2023-05-06T12:19:37.989Z,4.68
2023-05-06T12:22:42.126Z,7.65
2023-05-06T12:25:46.167Z,5.97
2023-05-06T12:29:07.122Z,6.82
2023-05-06T12:32:13.318Z,6.95
2023-05-06T12:35:26.904Z,8.73
2023-05-06T12:38:32.498Z,5.60
2023-05-06T12:41:41.164Z,6.32
2023-05-06T12:44:44.978Z,5.65
2023-05-06T12:47:57.118Z,5.88
2023-05-06T12:51:01.095Z,5.65
2023-05-06T12:54:05.079Z,5.63
2023-05-06T12:57:09.076Z,6.28
2023-05-06T13:00:14.242Z,9.77
2023-05-06T13:03:20.588Z,7.13
2023-05-06T13:06:24.467Z,4.22
2023-05-06T13:09:28.350Z,3.65
2023-05-06T13:12:32.504Z,3.97
2023-05-06T13:15:36.697Z,4.57
2023-05-06T13:18:42.077Z,5.35
2023-05-06T13:21:46.602Z,4.72
2023-05-06T13:24:50.567Z,3.88
2023-05-06T13:27:54.472Z,4.93
2023-05-06T13:30:58.270Z,4.05
2023-05-06T13:34:04.192Z,6.95
2023-05-06T13:37:08.187Z,6.47
2023-05-06T13:40:13.394Z,4.28
2023-05-06T13:43:17.359Z,6.60
2023-05-06T13:46:21.322Z,5.45
2023-05-06T13:49:26.649Z,6.18
2023-05-06T13:52:30.712Z,5.97
2023-05-06T13:55:34.463Z,5.40
2023-05-06T13:58:38.339Z,4.53
2023-05-06T14:01:42.659Z,5.95
2023-05-06T14:04:48.010Z,5.03
2023-05-06T14:07:52.089Z,6.85
2023-05-06T14:10:55.966Z,5.57
2023-05-06T14:13:59.769Z,3.55
2023-05-06T14:17:03.692Z,5.25
2023-05-06T14:20:10.549Z,6.65
2023-05-06T14:23:14.931Z,7.20
2023-05-06T14:26:18.800Z,6.45
2023-05-06T14:29:22.783Z,3.88
2023-05-06T14:32:26.771Z,4.47
2023-05-06T14:35:32.036Z,5.18
2023-05-06T14:38:35.969Z,4.30
2023-05-06T14:41:39.850Z,8.27
2023-05-06T14:44:45.417Z,4.18
2023-05-06T14:47:49.188Z,6.40
2023-05-06T14:50:54.524Z,3.72
2023-05-06T14:53:58.360Z,5.40
2023-05-06T14:57:03.334Z,3.88
2023-05-06T15:00:10.467Z,8.77
2023-05-06T15:03:14.322Z,3.80
2023-05-06T15:06:19.973Z,5.53
2023-05-06T15:09:23.806Z,2.88
2023-05-06T15:12:27.805Z,5.88
2023-05-06T15:15:31.845Z,3.10
2023-05-06T15:18:35.827Z,9.50
2023-05-06T15:21:41.112Z,5.57
2023-05-06T15:24:45.019Z,3.97
2023-05-06T15:27:48.762Z,3.63
2023-05-06T15:30:52.717Z,4.70
2023-05-06T15:33:58.316Z,7.10
2023-05-06T15:37:04.831Z,5.47
2023-05-06T15:40:12.219Z,6.65
2023-05-06T15:43:22.823Z,5.35
2023-05-06T15:46:28.362Z,5.43
2023-05-06T15:49:51.418Z,8.77
2023-05-06T15:52:57.898Z,5.47
2023-05-06T15:56:13.033Z,6.43
2023-05-06T15:59:21.788Z,5.22
2023-05-06T16:02:27.543Z,6.10
2023-05-06T16:05:31.732Z,3.90
2023-05-06T16:08:37.182Z,8.45
2023-05-06T16:11:40.950Z,8.38
2023-05-06T16:14:44.707Z,12.30
2023-05-06T16:17:48.564Z,5.25
2023-05-06T16:20:52.477Z,9.00
2023-05-06T16:23:57.918Z,8.10
2023-05-06T16:27:01.977Z,8.18
2023-05-06T16:30:06.630Z,6.95
2023-05-06T16:33:11.079Z,6.18
2023-05-06T16:36:15.151Z,6.97
2023-05-06T16:39:20.446Z,6.82
2023-05-06T16:42:28.019Z,8.38
2023-05-06T16:45:45.753Z,10.68
2023-05-06T16:48:50.011Z,6.50
2023-05-06T16:51:54.074Z,7.65
2023-05-06T16:55:09.893Z,6.60
2023-05-06T16:58:13.851Z,7.60
2023-05-06T17:01:43.803Z,8.32
2023-05-06T17:04:47.589Z,10.52
2023-05-06T17:07:51.397Z,10.82
2023-05-06T17:10:56.680Z,10.25
2023-05-06T17:14:00.547Z,9.35
2023-05-06T17:17:10.244Z,9.38
2023-05-06T17:20:15.744Z,10.32
2023-05-06T17:23:19.831Z,10.95
2023-05-06T17:26:25.181Z,11.80
2023-05-06T17:29:29.029Z,12.20
2023-05-06T17:32:32.918Z,6.88
2023-05-06T17:35:36.731Z,7.53
2023-05-06T17:38:40.666Z,10.18
2023-05-06T17:41:45.941Z,8.55
2023-05-06T17:44:49.751Z,10.50
2023-05-06T17:47:53.698Z,8.00
2023-05-06T17:51:02.243Z,9.27
2023-05-06T17:54:06.351Z,16.50
2023-05-06T17:57:11.710Z,11.43
2023-05-06T18:00:17.370Z,11.07
2023-05-06T18:03:21.270Z,14.55
2023-05-06T18:06:25.362Z,11.88
2023-05-06T18:09:29.257Z,9.23
2023-05-06T18:12:34.662Z,13.48
2023-05-06T18:15:38.674Z,12.07
2023-05-06T18:18:42.419Z,12.38
2023-05-06T18:21:46.981Z,11.32
2023-05-06T18:24:55.438Z,15.52
2023-05-06T18:28:00.940Z,11.60
2023-05-06T18:31:05.366Z,16.00
2023-05-06T18:34:09.104Z,15.80
2023-05-06T18:37:12.966Z,13.35
2023-05-06T18:40:16.936Z,16.10
2023-05-06T18:43:22.499Z,15.55
2023-05-06T18:46:27.268Z,12.18
2023-05-06T18:49:31.402Z,18.30
2023-05-06T18:52:36.364Z,16.77
2023-05-06T18:55:40.189Z,14.88
2023-05-06T18:58:45.516Z,12.98
2023-05-06T19:01:49.376Z,17.40
2023-05-06T19:04:53.297Z,14.88
2023-05-06T19:07:57.020Z,15.93
2023-05-06T19:11:01.105Z,13.18
2023-05-06T19:14:06.376Z,15.38
2023-05-06T19:17:11.588Z,17.25
2023-05-06T19:20:15.764Z,12.57
2023-05-06T19:23:20.383Z,17.45
2023-05-06T19:26:24.185Z,13.07
2023-05-06T19:29:29.490Z,15.23
2023-05-06T19:32:33.882Z,15.95
2023-05-06T19:35:39.534Z,16.88
2023-05-06T19:38:43.373Z,15.35
2023-05-06T19:41:47.581Z,13.73
2023-05-06T19:44:52.834Z,16.55
2023-05-06T19:47:56.722Z,20.00
2023-05-06T19:51:00.798Z,21.60
2023-05-06T19:54:04.973Z,38.08
2023-05-06T19:57:09.022Z,43.92
2023-05-06T20:00:20.304Z,53.90
2023-05-06T20:03:24.295Z,52.70
2023-05-06T20:06:49.580Z,47.67
2023-05-06T20:09:55.645Z,45.17
2023-05-06T20:12:59.508Z,46.72
2023-05-06T20:16:04.896Z,42.28
2023-05-06T20:19:09.164Z,38.33
2023-05-06T20:22:13.166Z,37.38
2023-05-06T20:25:18.880Z,42.60
2023-05-06T20:28:22.760Z,49.28
2023-05-06T20:31:28.164Z,43.35
2023-05-06T20:34:32.063Z,39.47
2023-05-06T20:37:36.513Z,29.45
2023-05-06T20:40:40.717Z,19.95
2023-05-06T20:43:44.584Z,19.25
2023-05-06T20:46:49.832Z,17.10
2023-05-06T20:49:53.647Z,12.13
2023-05-06T20:52:57.410Z,13.90
2023-05-06T20:56:01.299Z,13.15
2023-05-06T20:59:06.104Z,11.80
2023-05-06T21:02:11.674Z,12.00
2023-05-06T21:05:15.703Z,11.63
2023-05-06T21:08:19.461Z,11.00
2023-05-06T21:11:23.407Z,12.00
2023-05-06T21:14:27.994Z,13.20
2023-05-06T21:17:33.399Z,7.85
2023-05-06T21:20:37.285Z,7.20
2023-05-06T21:23:41.105Z,15.10
2023-05-06T21:26:44.820Z,8.65
2023-05-06T21:29:48.688Z,8.85
2023-05-06T21:32:54.076Z,7.97
2023-05-06T21:35:57.907Z,7.43
2023-05-06T21:39:06.995Z,6.50
2023-05-06T21:42:11.207Z,8.45
2023-05-06T21:45:16.422Z,9.90
2023-05-06T21:48:21.765Z,7.25
2023-05-06T21:51:27.793Z,7.57
2023-05-06T21:54:31.870Z,6.03
2023-05-06T21:57:35.776Z,8.27
2023-05-06T22:00:39.932Z,7.57
2023-05-06T22:03:46.562Z,5.57
2023-05-06T22:06:50.493Z,6.43
2023-05-06T22:09:54.406Z,7.07
2023-05-06T22:12:58.479Z,6.73
2023-05-06T22:16:02.584Z,7.53
2023-05-06T22:19:07.903Z,9.03
2023-05-06T22:22:11.735Z,9.40
2023-05-06T22:25:15.540Z,7.17
2023-05-06T22:28:19.415Z,5.77
2023-05-06T22:31:24.974Z,5.67
2023-05-06T22:34:30.441Z,6.37
2023-05-06T22:37:34.156Z,8.20
2023-05-06T22:40:38.050Z,8.17
2023-05-06T22:43:42.013Z,8.47
2023-05-06T22:46:45.797Z,7.97
2023-05-06T22:49:51.052Z,11.77
2023-05-06T22:52:54.914Z,7.07
2023-05-06T22:55:58.834Z,9.00
2023-05-06T22:59:02.679Z,8.40
2023-05-06T23:02:06.608Z,7.10
2023-05-06T23:05:12.717Z,6.23
2023-05-06T23:08:16.819Z,6.37
2023-05-06T23:11:20.830Z,5.77
2023-05-06T23:14:24.668Z,4.97
2023-05-06T23:17:28.562Z,5.17
2023-05-06T23:20:34.008Z,6.67
2023-05-06T23:23:37.730Z,6.33
2023-05-06T23:26:41.577Z,13.33
2023-05-06T23:29:45.363Z,10.97
2023-05-06T23:32:49.202Z,9.93
2023-05-06T23:35:54.400Z,8.60
2023-05-06T23:38:58.078Z,11.07
2023-05-06T23:42:02.443Z,7.67
2023-05-06T23:45:07.228Z,8.17
2023-05-06T23:48:11.083Z,7.87
2023-05-06T23:51:16.476Z,5.87
2023-05-06T23:54:20.201Z,8.27
2023-05-06T23:57:23.883Z,9.27
